Pagrindinis puslapis
METAR-TAF:

METAR-TAF

Oro uostai :

Doha, Kataras

platuma: 25-15-40N, ilguma: 051-33-54E, Aukštis: 11 m

Dabartinis oras

Ataskaita buvo paskelbta 45 minutes, ne 04:30 UTC
Vėjas 5 kt iš Pietų/Pietvakarių, svyruoja nuo Pietų ir Vakarų/Pietvakarių
Temperatūra 35°C
Drėgmė 23%
Slėgis 1005 hPa
Matomumas 10 km arba daugiau
nėra debesų žemiau 1500 m ir nėra kamuolinių lietaus debesų

METAR: OTBD 220430Z 21005KT 180V240 CAVOK 35/11 Q1005 NOSIG

Laikas: 08:15 (05:15 UTC)

Prognozė

Ataskaita buvo paskelbta 6 valandos ir 14 minutes, ne 23:01 UTC
Prognozė galioja nuo 22 metu 00 UTC su 23 metu 06 UTC
Vėjas 10 kt iš Pietryčių
Matomumas 10 km arba daugiau
Laikinai
nuo 22 metu 13 UTC su 22 metu 16 UTC
Vėjas 12 kt iš Rytų/Šiaurės Rytų

TAF: OTBD 212301Z 2200/2306 14010KT 9999 NSC TEMPO 2213/2216 07012KT

Orai ataskaitas ir orų prognozės (METAR, TAF).

turimą stotys yra geltonos ir raudonos taškus žemėlapyje.

Perkelti pele per norėdami pamatyti stoties vardą.

Tada spustelėkite, norėdami matyti oro stebėjimo ir prognozės.

Norėdami pakeisti žemėlapį: spustelėkite ant žalios mygtukų su juodo kryžiaus žemyn,; žalią mygtuką su brūkšneliu, jei norite nutolinti; arba žalių rodyklių gretimoms žemėlapius.


METAR-TAF: